Relevés horaires Semmerzake (Belgique)


Relevés horaires à Semmerzake - Jeudi 24 Juin 2021
Heure UTC1 Température [°C] Vent [km/h] Hum. [%] Pres.4 [hPa] Visi. [Km] Nébu. [octa] Préc.5 [mm] Cond.
2m. Res. Ros. Dir.2 Vit. Moy. Raf.3
23:00 12.3 12.3 7.5 NNO 3.7 -- 3.7 72 1020.5(0.0/3h) 20 -- -- --
22:00 11.6 11.6 7.5 NNO 1.9 -- 1.9 76 1020.7(0.4/3h) 13 -- -- --
21:00 14.0 14.0 7.5 NNO 1.9 -- 5.6 65 1021(0.6/3h) 19 -- -- --
20:00 15.8 15.8 11.9 NNO 1.9 -- 3.7 78 1020.5(0.1/3h) 10 -- -- --
19:00 16.7 16.7 12.4 NNO 1.9 -- 5.6 76 1020.3(-0.3/3h) 11 -- -- --
18:00 17.8 17.8 12.3 NNO 1.9 -- 11.1 70 1020.2(-0.7/3h) 15 -- -- --
17:00 17.4 17.4 12.5 NNO 1.9 -- 3.7 73 1020.3(-0.7/3h) 12 -- -- --
16:00 17.5 17.5 11.9 NNO 1.9 -- 5.6 70 1020.6(-0.3/3h) 14 -- -- --
15:00 17.1 17.1 12.1 NNO 1.9 -- 11.1 72 1021(-0.1/3h) 14 -- -- --
14:00 17.2 17.2 12.5 NO 3.7 -- 11.1 74 1021.1(0.0/3h) 14 -- -- --
13:00 17.5 17.5 12.3 NNO 5.6 -- 11.1 72 1021.1(0.1/3h) 17 -- -- --
12:00 17.1 17.1 11.7 NO 3.7 -- 9.3 71 1021.2(0.0/3h) 13 -- -- --
11:00 17.6 17.6 11.8 NNO 3.7 -- 9.3 69 1021.2(0.1/3h) 14 -- -- --
10:00 16.8 16.8 11.0 N 5.6 -- 9.3 69 1021.2(0.0/3h) 14 -- -- --
09:00 16.2 16.2 11.9 N 3.7 -- 7.4 76 1021.1(0.0/3h) 16 -- -- --
08:00 15.0 15.0 12.4 NNO 3.7 -- 7.4 84 1021.1(-0.2/3h) 6 -- -- --
07:00 14.2 14.2 12.2 N 3.7 -- 5.6 88 1021.2(-0.1/3h) 9 -- -- --
06:00 13.8 13.8 12.3 NNO 1.9 -- 7.4 91 1021.1(-0.1/3h) 8 -- -- --
05:00 13.4 13.4 12.1 NNO 1.9 -- 3.7 92 1021.3(-0.2/3h) 8 -- -- --
04:00 13.1 13.1 11.6 NNO 1.9 -- 5.6 91 1021.2(-0.7/3h) 8 -- -- --
03:00 13.1 13.1 11.3 NNO 3.7 -- 7.4 89 1021.2(-0.9/3h) 11 -- -- --
02:00 12.8 12.8 10.8 N 3.7 -- 5.6 88 1021.6(-0.4/3h) 14 -- -- --
01:00 12.9 12.9 10.7 NNO 1.9 -- 5.6 86 1022(-0.1/3h) 16 -- -- --
00:00 13.1 13.1 10.3 NNO 3.7 -- 9.3 83 1022.2(0.0/3h) 16 -- -- --

1 Coordinated Universal Time. Actuellement il est 18:00 locale et 16:00 UTC.

2 Le vent souffle depuis la direction indiquée vers la direction oposée.

3 Les rafales max. sont disponible 40 min après l'heure du relevé.

4 Pour les stations d'altitude (plus de 600m) le géopotentiel du niveau le plus proche de la pression obligatoire est indiqué.

5 Les stations disposant d'un diffuseur peuvent indiquer "trace". Cela signifie que des précipitations ont touchés le sol mais que la quantité est inférieure à 0.1 mm.

Récapitulatif de la journée
Température [°C] Vent [km/h] Ensoleillement4 [h] Precipitations totale5 [mm] Pression [Hpa]
Min1 Max.2 Moy.3 Max. Min Max.
12.8 18.3 0 11.1 0 h 0 min 0 1020.2 1022.2

1 Température minimale relevée entre 18:00 UTC la veille et 18:00 UTC le jour donné.

2 Température maximale relevée entre 06:00 UTC le jour donné et 06:00 UTC le lendemain.

3 Vent moyen de la journée basé sur les relevés horaires.

4 Ensoleillement en heures relevé entre 06:00 UTC la veille et 06:00 UTC le jour donné.

5 Précipitations totales tombées entre 06:00 UTC la jour donné et 06:00 UTC le lendemain.

Graphiques horaires